Zonhoven, Belgium
Current Conditions -  °F | °C
As of 12:55 PM on Saturday 25 Oct 2014 (Local Time) from EBBL Reporting Station
Broken Clouds Broken Clouds  
Wind Chill: 55°   Ceiling: 500
Heat Index: 55°   Visibility: 3mi
Dew Point: 54°   Wind: 7mph
Humidity: 94%   Direction: 230°SW
Pressure: 30.09"   Gusts: NA
Location:  50.99°N, 5.37°E
Report Text: EBBL 251055Z AUTO 23006KT 5000 FEW003/// BKN005/// BKN008/// 13/12 Q1019 YLO
Loading
Personal Weather Stations






























Interactive Weather Map
Tropical Storm Tracking
New forecast layout! Learn more

10-Day Weather Forecast

Advertisements
Track Severe Weather on mobile